메인 페이지
METAR-TAF:

METAR-TAF

공항 :

호니아라 국제공항

호니아라, 과달카날 섬, 솔로몬 제도

위도: 09-25S, 경도: 160-03E, 고도: 8m

현재 날씨관측

예보는 55분 전, 20:00시(UTC)에 발표되었습니다.
남남동3kt
온도 23°C
습도 100%
기압 1011 hPa
시정 10km 이상
고도 1500ft 상공 구름 조금
고도 1600ft 상공 구름 조금, 적란운.
고도 3000ft 상공 구름 많음

METAR: AGGH 202000Z 16003KT 9999 FEW015 FEW016CB BKN030 23/23 Q1011

시각: 07:55 (20:55 UTC)

예보

예보는 2 시간 40분 전, 18:15시(UTC)에 발표되었습니다.
예보 대상 시간: 20일 18시부터 21일 18시까지 (UTC)
여러 방향의 바람 3kt
시정 10km 이상
고도 1500ft 상공 구름 조금
20일 2300시부터 (UTC)
동북동12kt
시정 10km 이상
고도 1800ft 상공 구름 보통
고도 3000ft 상공 구름 보통
(약한) 소나기, 이슬비
확률 40%
IN시부터 TE시까지 (UTC)
시정: 1010m
고도 1800ft 상공 구름 많음
고도 1900ft 상공 구름 보통, 적란운.

TAF: AGGH 201815Z 2018/2118 VRB03KT 9999 FEW015 FM202300 07012KT 9999 -SHDZ SCT018 SCT030 PROB40 INTER 2100/2106 5000 TSSH BKN018 SCT019CB T 21 25 30 31 Q 1010 1012 1012 1010

4,000개 이상의 공항 관측 자료 및 예보 (METAR 및 TAF 보고).

지도상에서 검색 가능한 기상관측소가 노란 점과 빨간 점으로 표시되어 있습니다.

기상관측소 명을 보려면 표시 위로 마우스를 이동하세요.

날씨 관측과 예보를 보려면 클릭하세요.

지도 변경 : 확대하려면 엑스 표시가 있는 녹색 버튼, 축소하려면 빼기 표시가 있는 녹색 버튼, 다음 페이지의 지도를 보려면 녹색 화살표를 클릭하세요.


METAR-TAF: